Aruba, Aruba

09:24 PM AST del 20 Aprile 2015 (GMT -0400)
Oranjestad-Reina Beatrix International | | Change Station
CLOSE
Current Station
Aeroporto
Location: Aruba,
Altitudine: 59 ft
Stazioni meteo nelle vicinanze

Alt. 59 ft 12.50 °N, 70.02 °W | Updated 24 minutes ago

Scattered Clouds
Nubi sparse
82 °F
Sembra 88 °F
N
21
Vento Variabile Vento da Est
Gusts 33 mph

Oggi
Massima -- | Minima -- °F
--% Possibilità di precip.
Ieri
Massima -- | Minima -- °F
Precip. -- in
6:25 AM 6:52 PM
Luna crescente, 7% visible
Pressione 29.86 in
Visibilità 6.2 miglia
Nuvole Nubi sparse 1800 ft
Indice di calore 88 °F
Punto di rugiada 73 °F
Umidità 74%
Piovosità 0.00 in
Spessore del manto nevoso Non disponibile.
Raggi UV 0 fuori da 12
Polline Non disponibile.
Qualità dell'aria Non disponibile.
Flu Activity Non disponibile.
METAR TNCA 210100Z 09018G29KT 9999 SCT018 28/23 Q1011 A2987 NOSIG

More Conditions Fewer Conditions

Pressione 29.86 in
Visibilità 6.2 miglia
Nuvole Nubi sparse 1800 ft
Indice di calore 88 °F
Punto di rugiada 73 °F
Umidità 74%
Piovosità 0.00 in
Spessore del manto nevoso Non disponibile.
Raggi UV 0 fuori da 12
Polline Non disponibile.
Qualità dell'aria Non disponibile.
Flu Activity Non disponibile.
METAR TNCA 210100Z 09018G29KT 9999 SCT018 28/23 Q1011 A2987 NOSIG

More Conditions Fewer Conditions

10-Day Weather Forecast

Almanac

Astronomia

Apr. 20, 2015 Alba Tramonto
Ora attuale
Crepuscolo civile
Crepuscolo nautico
Crepuscolo astronomico
Luna
Estensione della luce visibile
Lunghezza del giorno
Tomorrow will be .
, % of the Moon is Illuminated

Gli estremi di oggi

Massime Regione Minime Regione

Community

WunderPhotos

Upload Photos

1,815,274 foto caricate!

WunderBlogs® & News

Nearby

Qualità dell'aria

  Qualità dell'aria Indice AQ Inquinante
Not available.

Profondità neve

Stazione Profondità Altitudine

Attività sismica

Città  Distanza Mag. Data & Ora
Minimo Magnitudo Mostrato è 2.5.

Temperature delle acque costiere

Località Temperatura

Stations

Stazioni meteo nelle vicinanze

Ubicazione della stazione Temp. Raffreddamento del vento Punto di rugiada Umidità Vento Precip. Alt. Aggiornato Tipo